sensor_id;sensor_type;location;lat;lon;timestamp;temperature;humidity
41939;DHT22;23057;48.554;14.454;2022-07-19T00:02:00;14.30;1.00
41939;DHT22;23057;48.554;14.454;2022-07-19T00:04:31;14.20;1.00
41939;DHT22;23057;48.554;14.454;2022-07-19T00:07:04;14.10;1.00
41939;DHT22;23057;48.554;14.454;2022-07-19T00:09:35;14.00;1.00
41939;DHT22;23057;48.554;14.454;2022-07-19T00:12:05;14.00;1.00
41939;DHT22;23057;48.554;14.454;2022-07-19T00:14:36;13.90;1.00
41939;DHT22;23057;48.554;14.454;2022-07-19T00:17:07;13.80;1.00
41939;DHT22;23057;48.554;14.454;2022-07-19T00:19:38;13.80;1.00
41939;DHT22;23057;48.554;14.454;2022-07-19T00:22:09;13.60;1.00
41939;DHT22;23057;48.554;14.454;2022-07-19T00:24:40;13.40;16.60
41939;DHT22;23057;48.554;14.454;2022-07-19T00:27:11;13.30;36.10
41939;DHT22;23057;48.554;14.454;2022-07-19T00:29:42;13.30;48.60
41939;DHT22;23057;48.554;14.454;2022-07-19T00:32:13;13.30;65.30
41939;DHT22;23057;48.554;14.454;2022-07-19T00:34:43;13.30;82.40
41939;DHT22;23057;48.554;14.454;2022-07-19T00:37:14;13.30;90.10
41939;DHT22;23057;48.554;14.454;2022-07-19T00:39:45;13.30;81.00
41939;DHT22;23057;48.554;14.454;2022-07-19T00:42:17;13.40;86.50
41939;DHT22;23057;48.554;14.454;2022-07-19T00:44:48;13.50;96.00
41939;DHT22;23057;48.554;14.454;2022-07-19T00:47:19;13.50;98.00
41939;DHT22;23057;48.554;14.454;2022-07-19T00:49:51;13.50;90.70
41939;DHT22;23057;48.554;14.454;2022-07-19T00:52:22;13.60;81.90
41939;DHT22;23057;48.554;14.454;2022-07-19T00:54:58;13.50;63.50
41939;DHT22;23057;48.554;14.454;2022-07-19T00:57:30;13.50;64.50
41939;DHT22;23057;48.554;14.454;2022-07-19T01:00:02;13.50;73.00
41939;DHT22;23057;48.554;14.454;2022-07-19T01:02:35;13.50;54.90
41939;DHT22;23057;48.554;14.454;2022-07-19T01:05:08;13.50;38.90
41939;DHT22;23057;48.554;14.454;2022-07-19T01:07:41;13.40;47.40
41939;DHT22;23057;48.554;14.454;2022-07-19T01:10:13;13.30;45.00
41939;DHT22;23057;48.554;14.454;2022-07-19T01:12:45;13.30;57.10
41939;DHT22;23057;48.554;14.454;2022-07-19T01:17:53;13.20;83.20
41939;DHT22;23057;48.554;14.454;2022-07-19T01:20:24;13.10;95.50
41939;DHT22;23057;48.554;14.454;2022-07-19T01:22:56;13.10;99.90
41939;DHT22;23057;48.554;14.454;2022-07-19T01:25:28;13.10;99.90
41939;DHT22;23057;48.554;14.454;2022-07-19T01:28:03;13.10;99.90
41939;DHT22;23057;48.554;14.454;2022-07-19T01:30:36;13.00;99.90
41939;DHT22;23057;48.554;14.454;2022-07-19T01:33:07;12.90;99.90
41939;DHT22;23057;48.554;14.454;2022-07-19T01:35:38;12.90;99.90
41939;DHT22;23057;48.554;14.454;2022-07-19T01:38:09;12.90;99.90
41939;DHT22;23057;48.554;14.454;2022-07-19T01:40:40;12.90;99.90
41939;DHT22;23057;48.554;14.454;2022-07-19T01:43:11;12.70;99.90
41939;DHT22;23057;48.554;14.454;2022-07-19T01:45:41;12.70;99.90
41939;DHT22;23057;48.554;14.454;2022-07-19T01:48:12;12.50;99.90
41939;DHT22;23057;48.554;14.454;2022-07-19T01:50:43;12.50;99.90
41939;DHT22;23057;48.554;14.454;2022-07-19T01:53:14;12.60;99.90
41939;DHT22;23057;48.554;14.454;2022-07-19T01:55:45;12.60;99.90
41939;DHT22;23057;48.554;14.454;2022-07-19T01:58:16;12.70;99.90
41939;DHT22;23057;48.554;14.454;2022-07-19T02:00:47;12.80;99.90
41939;DHT22;23057;48.554;14.454;2022-07-19T02:03:18;12.90;79.30
41939;DHT22;23057;48.554;14.454;2022-07-19T02:05:49;12.90;64.90
41939;DHT22;23057;48.554;14.454;2022-07-19T02:08:19;12.80;69.40
41939;DHT22;23057;48.554;14.454;2022-07-19T02:10:51;12.70;96.00
41939;DHT22;23057;48.554;14.454;2022-07-19T02:13:22;12.70;99.90
41939;DHT22;23057;48.554;14.454;2022-07-19T02:15:52;12.70;99.90
41939;DHT22;23057;48.554;14.454;2022-07-19T02:18:23;12.70;99.90
41939;DHT22;23057;48.554;14.454;2022-07-19T02:20:54;12.70;99.90
41939;DHT22;23057;48.554;14.454;2022-07-19T02:23:25;12.70;99.90
41939;DHT22;23057;48.554;14.454;2022-07-19T02:25:56;12.60;99.90
41939;DHT22;23057;48.554;14.454;2022-07-19T02:28:26;12.60;99.90
41939;DHT22;23057;48.554;14.454;2022-07-19T02:30:57;12.50;99.90
41939;DHT22;23057;48.554;14.454;2022-07-19T02:33:28;12.50;99.90
41939;DHT22;23057;48.554;14.454;2022-07-19T02:35:59;12.50;99.90
41939;DHT22;23057;48.554;14.454;2022-07-19T02:38:30;12.40;99.90
41939;DHT22;23057;48.554;14.454;2022-07-19T02:41:02;12.30;99.90
41939;DHT22;23057;48.554;14.454;2022-07-19T02:43:33;12.30;99.90
41939;DHT22;23057;48.554;14.454;2022-07-19T02:46:04;12.30;99.90
41939;DHT22;23057;48.554;14.454;2022-07-19T02:48:34;12.30;99.90
41939;DHT22;23057;48.554;14.454;2022-07-19T02:51:09;12.40;99.90
41939;DHT22;23057;48.554;14.454;2022-07-19T02:53:42;12.40;99.90
41939;DHT22;23057;48.554;14.454;2022-07-19T02:56:12;12.40;99.90
41939;DHT22;23057;48.554;14.454;2022-07-19T02:58:43;12.40;99.90
41939;DHT22;23057;48.554;14.454;2022-07-19T03:01:14;12.40;99.90
41939;DHT22;23057;48.554;14.454;2022-07-19T03:03:46;12.40;99.90
41939;DHT22;23057;48.554;14.454;2022-07-19T03:06:20;12.40;99.90
41939;DHT22;23057;48.554;14.454;2022-07-19T03:08:51;12.40;99.90
41939;DHT22;23057;48.554;14.454;2022-07-19T03:11:22;12.30;99.90
41939;DHT22;23057;48.554;14.454;2022-07-19T03:13:53;12.30;99.90
41939;DHT22;23057;48.554;14.454;2022-07-19T03:16:24;12.30;99.90
41939;DHT22;23057;48.554;14.454;2022-07-19T03:18:55;12.30;99.90
41939;DHT22;23057;48.554;14.454;2022-07-19T03:21:26;12.30;99.90
41939;DHT22;23057;48.554;14.454;2022-07-19T03:23:56;12.20;99.90
41939;DHT22;23057;48.554;14.454;2022-07-19T03:26:27;12.20;99.90
41939;DHT22;23057;48.554;14.454;2022-07-19T03:28:58;12.30;99.90
41939;DHT22;23057;48.554;14.454;2022-07-19T03:31:29;12.30;99.90
41939;DHT22;23057;48.554;14.454;2022-07-19T03:34:00;12.50;99.90
41939;DHT22;23057;48.554;14.454;2022-07-19T03:36:30;12.40;99.90
41939;DHT22;23057;48.554;14.454;2022-07-19T03:39:02;12.50;99.90
41939;DHT22;23057;48.554;14.454;2022-07-19T03:41:33;12.70;99.90
41939;DHT22;23057;48.554;14.454;2022-07-19T03:44:04;13.30;99.10
41939;DHT22;23057;48.554;14.454;2022-07-19T03:46:35;13.80;1.00
41939;DHT22;23057;48.554;14.454;2022-07-19T03:49:06;14.20;1.00
41939;DHT22;23057;48.554;14.454;2022-07-19T03:51:36;14.70;1.00
41939;DHT22;23057;48.554;14.454;2022-07-19T03:54:07;14.90;1.00
41939;DHT22;23057;48.554;14.454;2022-07-19T03:56:38;15.30;1.00
41939;DHT22;23057;48.554;14.454;2022-07-19T03:59:09;15.80;1.00
41939;DHT22;23057;48.554;14.454;2022-07-19T04:01:40;16.40;99.90
41939;DHT22;23057;48.554;14.454;2022-07-19T04:04:10;16.60;99.90
41939;DHT22;23057;48.554;14.454;2022-07-19T04:06:41;17.10;99.90
41939;DHT22;23057;48.554;14.454;2022-07-19T04:09:12;17.70;99.90
41939;DHT22;23057;48.554;14.454;2022-07-19T04:11:43;18.20;99.90
41939;DHT22;23057;48.554;14.454;2022-07-19T04:14:14;18.50;99.90
41939;DHT22;23057;48.554;14.454;2022-07-19T04:16:45;18.90;99.90
41939;DHT22;23057;48.554;14.454;2022-07-19T04:19:16;19.30;99.90
41939;DHT22;23057;48.554;14.454;2022-07-19T04:21:46;19.80;99.90
41939;DHT22;23057;48.554;14.454;2022-07-19T04:24:17;20.30;99.90
41939;DHT22;23057;48.554;14.454;2022-07-19T04:26:48;20.50;99.90
41939;DHT22;23057;48.554;14.454;2022-07-19T04:29:19;21.00;99.90
41939;DHT22;23057;48.554;14.454;2022-07-19T04:31:49;21.40;99.90
41939;DHT22;23057;48.554;14.454;2022-07-19T04:34:20;21.50;99.90
41939;DHT22;23057;48.554;14.454;2022-07-19T04:36:51;21.80;99.90
41939;DHT22;23057;48.554;14.454;2022-07-19T04:39:22;22.30;99.90
41939;DHT22;23057;48.554;14.454;2022-07-19T04:41:53;22.50;99.90
41939;DHT22;23057;48.554;14.454;2022-07-19T04:44:23;22.30;99.90
41939;DHT22;23057;48.554;14.454;2022-07-19T04:46:54;22.30;99.90
41939;DHT22;23057;48.554;14.454;2022-07-19T04:49:25;22.40;99.90
41939;DHT22;23057;48.554;14.454;2022-07-19T04:51:56;22.90;99.90
41939;DHT22;23057;48.554;14.454;2022-07-19T04:54:27;22.30;99.90
41939;DHT22;23057;48.554;14.454;2022-07-19T04:56:58;22.70;99.90
41939;DHT22;23057;48.554;14.454;2022-07-19T04:59:28;22.80;99.90
41939;DHT22;23057;48.554;14.454;2022-07-19T05:01:59;23.10;99.90
41939;DHT22;23057;48.554;14.454;2022-07-19T05:04:30;23.20;99.90
41939;DHT22;23057;48.554;14.454;2022-07-19T05:07:01;23.30;99.90
41939;DHT22;23057;48.554;14.454;2022-07-19T05:09:32;23.40;99.90
41939;DHT22;23057;48.554;14.454;2022-07-19T05:12:03;23.50;99.90
41939;DHT22;23057;48.554;14.454;2022-07-19T05:14:36;23.90;99.90
41939;DHT22;23057;48.554;14.454;2022-07-19T05:17:07;24.30;99.90
41939;DHT22;23057;48.554;14.454;2022-07-19T05:19:38;25.00;99.90
41939;DHT22;23057;48.554;14.454;2022-07-19T05:22:09;26.10;99.90
41939;DHT22;23057;48.554;14.454;2022-07-19T05:24:40;27.10;99.90
41939;DHT22;23057;48.554;14.454;2022-07-19T05:27:10;27.60;99.90
41939;DHT22;23057;48.554;14.454;2022-07-19T05:29:41;27.90;99.90
41939;DHT22;23057;48.554;14.454;2022-07-19T05:32:12;29.20;99.90
41939;DHT22;23057;48.554;14.454;2022-07-19T05:34:43;29.20;99.90
41939;DHT22;23057;48.554;14.454;2022-07-19T05:37:14;30.20;99.90
41939;DHT22;23057;48.554;14.454;2022-07-19T05:39:45;30.40;99.90
41939;DHT22;23057;48.554;14.454;2022-07-19T05:42:16;29.50;99.90
41939;DHT22;23057;48.554;14.454;2022-07-19T05:44:47;28.90;99.90
41939;DHT22;23057;48.554;14.454;2022-07-19T05:47:17;29.10;99.90
41939;DHT22;23057;48.554;14.454;2022-07-19T05:49:48;29.10;99.90
41939;DHT22;23057;48.554;14.454;2022-07-19T05:52:19;29.50;99.90
41939;DHT22;23057;48.554;14.454;2022-07-19T05:54:50;28.80;99.90
41939;DHT22;23057;48.554;14.454;2022-07-19T05:57:21;28.70;99.90
41939;DHT22;23057;48.554;14.454;2022-07-19T05:59:51;27.90;99.90
41939;DHT22;23057;48.554;14.454;2022-07-19T06:02:23;26.90;99.90
41939;DHT22;23057;48.554;14.454;2022-07-19T06:04:55;26.90;99.90
41939;DHT22;23057;48.554;14.454;2022-07-19T06:07:26;27.20;99.90
41939;DHT22;23057;48.554;14.454;2022-07-19T06:09:57;27.60;99.90
41939;DHT22;23057;48.554;14.454;2022-07-19T06:12:27;28.10;99.90
41939;DHT22;23057;48.554;14.454;2022-07-19T06:14:58;28.30;99.90
41939;DHT22;23057;48.554;14.454;2022-07-19T06:17:29;28.30;99.90
41939;DHT22;23057;48.554;14.454;2022-07-19T06:20:00;28.20;99.90
41939;DHT22;23057;48.554;14.454;2022-07-19T06:22:31;28.80;99.90
41939;DHT22;23057;48.554;14.454;2022-07-19T06:25:02;28.90;99.90
41939;DHT22;23057;48.554;14.454;2022-07-19T06:27:35;29.10;99.90
41939;DHT22;23057;48.554;14.454;2022-07-19T06:30:06;29.10;99.90
41939;DHT22;23057;48.554;14.454;2022-07-19T06:32:37;30.30;99.90
41939;DHT22;23057;48.554;14.454;2022-07-19T06:35:08;30.10;99.90
41939;DHT22;23057;48.554;14.454;2022-07-19T06:37:39;30.30;99.90
41939;DHT22;23057;48.554;14.454;2022-07-19T06:40:10;30.10;99.90
41939;DHT22;23057;48.554;14.454;2022-07-19T06:42:41;30.50;99.90
41939;DHT22;23057;48.554;14.454;2022-07-19T06:45:12;30.30;99.90
41939;DHT22;23057;48.554;14.454;2022-07-19T06:47:43;29.30;99.90
41939;DHT22;23057;48.554;14.454;2022-07-19T06:50:15;29.60;99.90
41939;DHT22;23057;48.554;14.454;2022-07-19T06:52:46;29.60;99.90
41939;DHT22;23057;48.554;14.454;2022-07-19T06:55:17;29.40;99.90
41939;DHT22;23057;48.554;14.454;2022-07-19T06:57:49;29.60;99.90
41939;DHT22;23057;48.554;14.454;2022-07-19T07:00:19;29.00;99.90
41939;DHT22;23057;48.554;14.454;2022-07-19T07:02:50;28.50;99.90
41939;DHT22;23057;48.554;14.454;2022-07-19T07:05:21;27.80;99.90
41939;DHT22;23057;48.554;14.454;2022-07-19T07:07:52;27.80;99.90
41939;DHT22;23057;48.554;14.454;2022-07-19T07:10:24;27.60;99.90
41939;DHT22;23057;48.554;14.454;2022-07-19T07:12:55;27.30;99.90
41939;DHT22;23057;48.554;14.454;2022-07-19T07:15:26;27.10;99.90
41939;DHT22;23057;48.554;14.454;2022-07-19T07:17:57;27.20;99.90
41939;DHT22;23057;48.554;14.454;2022-07-19T07:20:28;27.10;99.90
41939;DHT22;23057;48.554;14.454;2022-07-19T07:22:58;27.20;99.90
41939;DHT22;23057;48.554;14.454;2022-07-19T07:25:29;27.50;99.90
41939;DHT22;23057;48.554;14.454;2022-07-19T07:28:00;27.30;99.90
41939;DHT22;23057;48.554;14.454;2022-07-19T07:30:31;27.30;99.90
41939;DHT22;23057;48.554;14.454;2022-07-19T07:33:02;27.40;99.90
41939;DHT22;23057;48.554;14.454;2022-07-19T07:35:33;27.40;99.90
41939;DHT22;23057;48.554;14.454;2022-07-19T07:38:04;27.70;99.90
41939;DHT22;23057;48.554;14.454;2022-07-19T07:40:34;28.10;99.90
41939;DHT22;23057;48.554;14.454;2022-07-19T07:43:05;28.30;99.90
41939;DHT22;23057;48.554;14.454;2022-07-19T07:45:37;27.80;99.90
41939;DHT22;23057;48.554;14.454;2022-07-19T07:48:08;27.80;99.90
41939;DHT22;23057;48.554;14.454;2022-07-19T07:50:38;28.00;99.90
41939;DHT22;23057;48.554;14.454;2022-07-19T07:53:09;28.00;99.90
41939;DHT22;23057;48.554;14.454;2022-07-19T07:55:41;28.20;99.90
41939;DHT22;23057;48.554;14.454;2022-07-19T07:58:12;28.20;99.90
41939;DHT22;23057;48.554;14.454;2022-07-19T08:00:43;28.80;99.90
41939;DHT22;23057;48.554;14.454;2022-07-19T08:03:14;28.30;99.90
41939;DHT22;23057;48.554;14.454;2022-07-19T08:05:46;27.90;99.90
41939;DHT22;23057;48.554;14.454;2022-07-19T08:08:18;27.90;99.90
41939;DHT22;23057;48.554;14.454;2022-07-19T08:10:49;27.70;99.90
41939;DHT22;23057;48.554;14.454;2022-07-19T08:17:05;27.00;99.90
41939;DHT22;23057;48.554;14.454;2022-07-19T08:19:36;27.10;99.90
41939;DHT22;23057;48.554;14.454;2022-07-19T08:22:07;27.10;99.90
41939;DHT22;23057;48.554;14.454;2022-07-19T08:24:38;27.40;99.90
41939;DHT22;23057;48.554;14.454;2022-07-19T08:27:09;27.60;99.90
41939;DHT22;23057;48.554;14.454;2022-07-19T08:29:39;27.90;99.90
41939;DHT22;23057;48.554;14.454;2022-07-19T08:32:10;28.60;99.90
41939;DHT22;23057;48.554;14.454;2022-07-19T08:34:41;27.70;99.90
41939;DHT22;23057;48.554;14.454;2022-07-19T08:37:12;27.80;99.90
41939;DHT22;23057;48.554;14.454;2022-07-19T08:39:43;27.70;99.90
41939;DHT22;23057;48.554;14.454;2022-07-19T08:42:16;27.80;99.90
41939;DHT22;23057;48.554;14.454;2022-07-19T08:44:51;27.80;99.90
41939;DHT22;23057;48.554;14.454;2022-07-19T08:47:24;28.00;99.90
41939;DHT22;23057;48.554;14.454;2022-07-19T08:49:57;28.10;99.90
41939;DHT22;23057;48.554;14.454;2022-07-19T08:52:34;28.60;99.90
41939;DHT22;23057;48.554;14.454;2022-07-19T08:55:06;28.30;99.90
41939;DHT22;23057;48.554;14.454;2022-07-19T08:57:38;28.00;99.90
41939;DHT22;23057;48.554;14.454;2022-07-19T09:00:28;28.20;99.90
41939;DHT22;23057;48.554;14.454;2022-07-19T09:03:02;28.10;99.90
41939;DHT22;23057;48.554;14.454;2022-07-19T09:05:38;27.90;99.90
41939;DHT22;23057;48.554;14.454;2022-07-19T09:08:16;27.60;99.90
41939;DHT22;23057;48.554;14.454;2022-07-19T09:10:48;27.40;99.90
41939;DHT22;23057;48.554;14.454;2022-07-19T09:13:38;27.00;99.90
41939;DHT22;23057;48.554;14.454;2022-07-19T09:16:09;27.30;99.90
41939;DHT22;23057;48.554;14.454;2022-07-19T09:18:40;27.90;99.90
41939;DHT22;23057;48.554;14.454;2022-07-19T09:21:11;28.20;99.90
41939;DHT22;23057;48.554;14.454;2022-07-19T09:23:41;28.30;99.90
41939;DHT22;23057;48.554;14.454;2022-07-19T09:26:12;29.00;99.90
41939;DHT22;23057;48.554;14.454;2022-07-19T09:28:43;29.40;99.90
41939;DHT22;23057;48.554;14.454;2022-07-19T09:31:14;29.20;99.90
41939;DHT22;23057;48.554;14.454;2022-07-19T09:33:45;28.00;99.90
41939;DHT22;23057;48.554;14.454;2022-07-19T09:36:22;27.80;99.90
41939;DHT22;23057;48.554;14.454;2022-07-19T09:38:53;28.20;99.90
41939;DHT22;23057;48.554;14.454;2022-07-19T09:41:24;28.80;99.90
41939;DHT22;23057;48.554;14.454;2022-07-19T09:46:35;29.20;99.90
41939;DHT22;23057;48.554;14.454;2022-07-19T09:49:10;29.30;99.90
41939;DHT22;23057;48.554;14.454;2022-07-19T09:51:47;29.60;99.90
41939;DHT22;23057;48.554;14.454;2022-07-19T09:54:25;29.40;99.90
41939;DHT22;23057;48.554;14.454;2022-07-19T09:56:58;28.80;99.90
41939;DHT22;23057;48.554;14.454;2022-07-19T09:59:30;28.70;99.90
41939;DHT22;23057;48.554;14.454;2022-07-19T10:02:02;29.00;99.90
41939;DHT22;23057;48.554;14.454;2022-07-19T10:04:33;29.50;99.90
41939;DHT22;23057;48.554;14.454;2022-07-19T10:07:05;29.80;99.90
41939;DHT22;23057;48.554;14.454;2022-07-19T10:09:36;29.90;99.90
41939;DHT22;23057;48.554;14.454;2022-07-19T10:12:08;30.20;99.90
41939;DHT22;23057;48.554;14.454;2022-07-19T10:14:39;29.90;99.90
41939;DHT22;23057;48.554;14.454;2022-07-19T10:20:09;29.70;99.90
41939;DHT22;23057;48.554;14.454;2022-07-19T10:22:41;30.10;99.90
41939;DHT22;23057;48.554;14.454;2022-07-19T10:25:13;29.80;99.90
41939;DHT22;23057;48.554;14.454;2022-07-19T10:27:52;29.60;99.90
41939;DHT22;23057;48.554;14.454;2022-07-19T10:30:25;28.50;99.90
41939;DHT22;23057;48.554;14.454;2022-07-19T10:32:56;28.30;99.90
41939;DHT22;23057;48.554;14.454;2022-07-19T10:40:34;29.80;99.90
41939;DHT22;23057;48.554;14.454;2022-07-19T10:43:16;30.00;99.90
41939;DHT22;23057;48.554;14.454;2022-07-19T10:48:35;29.90;99.90
41939;DHT22;23057;48.554;14.454;2022-07-19T10:51:12;30.00;99.90
41939;DHT22;23057;48.554;14.454;2022-07-19T10:54:05;30.60;99.90
41939;DHT22;23057;48.554;14.454;2022-07-19T10:56:41;30.80;99.90
41939;DHT22;23057;48.554;14.454;2022-07-19T10:59:34;30.90;99.90
41939;DHT22;23057;48.554;14.454;2022-07-19T11:02:21;30.90;99.90
41939;DHT22;23057;48.554;14.454;2022-07-19T11:04:54;30.80;99.90
41939;DHT22;23057;48.554;14.454;2022-07-19T11:07:26;31.00;99.90
41939;DHT22;23057;48.554;14.454;2022-07-19T11:09:57;31.00;99.90
41939;DHT22;23057;48.554;14.454;2022-07-19T11:12:30;30.60;99.90
41939;DHT22;23057;48.554;14.454;2022-07-19T11:15:06;30.80;99.90
41939;DHT22;23057;48.554;14.454;2022-07-19T11:17:49;30.10;99.90
41939;DHT22;23057;48.554;14.454;2022-07-19T11:20:22;29.70;99.90
41939;DHT22;23057;48.554;14.454;2022-07-19T11:22:58;29.70;99.90
41939;DHT22;23057;48.554;14.454;2022-07-19T11:25:37;30.50;99.90
41939;DHT22;23057;48.554;14.454;2022-07-19T11:28:24;30.40;99.90
41939;DHT22;23057;48.554;14.454;2022-07-19T11:30:55;30.90;99.90
41939;DHT22;23057;48.554;14.454;2022-07-19T11:33:26;30.90;99.90
41939;DHT22;23057;48.554;14.454;2022-07-19T11:35:58;30.70;99.90
41939;DHT22;23057;48.554;14.454;2022-07-19T11:38:40;30.90;99.90
41939;DHT22;23057;48.554;14.454;2022-07-19T11:41:29;30.90;99.90
41939;DHT22;23057;48.554;14.454;2022-07-19T11:46:37;30.30;99.90
41939;DHT22;23057;48.554;14.454;2022-07-19T11:49:14;30.30;99.90
41939;DHT22;23057;48.554;14.454;2022-07-19T11:51:45;29.60;99.90
41939;DHT22;23057;48.554;14.454;2022-07-19T11:54:16;29.10;99.90
41939;DHT22;23057;48.554;14.454;2022-07-19T11:56:47;29.30;99.90
41939;DHT22;23057;48.554;14.454;2022-07-19T11:59:17;29.40;99.90
41939;DHT22;23057;48.554;14.454;2022-07-19T12:01:54;28.90;99.90
41939;DHT22;23057;48.554;14.454;2022-07-19T12:04:27;28.80;99.90
41939;DHT22;23057;48.554;14.454;2022-07-19T12:07:07;29.60;99.90
41939;DHT22;23057;48.554;14.454;2022-07-19T12:09:38;29.70;99.90
41939;DHT22;23057;48.554;14.454;2022-07-19T12:12:12;30.20;99.90
41939;DHT22;23057;48.554;14.454;2022-07-19T12:14:46;30.50;99.90
41939;DHT22;23057;48.554;14.454;2022-07-19T12:17:18;30.10;99.90
41939;DHT22;23057;48.554;14.454;2022-07-19T12:19:52;29.80;99.90
41939;DHT22;23057;48.554;14.454;2022-07-19T12:22:39;30.00;99.90
41939;DHT22;23057;48.554;14.454;2022-07-19T12:25:10;30.50;99.90
41939;DHT22;23057;48.554;14.454;2022-07-19T12:27:41;30.60;99.90
41939;DHT22;23057;48.554;14.454;2022-07-19T12:30:17;30.10;99.90
41939;DHT22;23057;48.554;14.454;2022-07-19T12:32:50;30.10;99.90
41939;DHT22;23057;48.554;14.454;2022-07-19T12:35:21;29.80;99.90
41939;DHT22;23057;48.554;14.454;2022-07-19T12:38:01;29.90;99.90
41939;DHT22;23057;48.554;14.454;2022-07-19T12:40:33;29.50;99.90
41939;DHT22;23057;48.554;14.454;2022-07-19T12:43:06;29.40;99.90
41939;DHT22;23057;48.554;14.454;2022-07-19T12:45:41;29.60;99.90
41939;DHT22;23057;48.554;14.454;2022-07-19T12:48:17;29.90;99.90
41939;DHT22;23057;48.554;14.454;2022-07-19T12:50:48;30.10;99.90
41939;DHT22;23057;48.554;14.454;2022-07-19T12:53:21;30.30;99.90
41939;DHT22;23057;48.554;14.454;2022-07-19T12:55:53;30.20;99.90
41939;DHT22;23057;48.554;14.454;2022-07-19T12:58:24;29.80;99.90
41939;DHT22;23057;48.554;14.454;2022-07-19T13:01:13;29.70;99.90
41939;DHT22;23057;48.554;14.454;2022-07-19T13:03:44;29.20;99.90
41939;DHT22;23057;48.554;14.454;2022-07-19T13:06:15;29.40;99.90
41939;DHT22;23057;48.554;14.454;2022-07-19T13:08:46;29.80;99.90
41939;DHT22;23057;48.554;14.454;2022-07-19T13:11:16;29.60;99.90
41939;DHT22;23057;48.554;14.454;2022-07-19T13:13:47;29.30;99.90
41939;DHT22;23057;48.554;14.454;2022-07-19T13:16:18;29.10;99.90
41939;DHT22;23057;48.554;14.454;2022-07-19T13:18:51;29.20;99.90
41939;DHT22;23057;48.554;14.454;2022-07-19T13:21:22;29.70;99.90
41939;DHT22;23057;48.554;14.454;2022-07-19T13:23:54;29.60;99.90
41939;DHT22;23057;48.554;14.454;2022-07-19T13:26:25;29.90;99.90
41939;DHT22;23057;48.554;14.454;2022-07-19T13:28:56;29.70;99.90
41939;DHT22;23057;48.554;14.454;2022-07-19T13:31:27;29.40;99.90
41939;DHT22;23057;48.554;14.454;2022-07-19T13:33:58;29.20;99.90
41939;DHT22;23057;48.554;14.454;2022-07-19T13:36:28;29.50;99.90
41939;DHT22;23057;48.554;14.454;2022-07-19T13:38:59;29.50;99.90
41939;DHT22;23057;48.554;14.454;2022-07-19T13:41:31;29.70;99.90
41939;DHT22;23057;48.554;14.454;2022-07-19T13:44:02;30.10;99.90
41939;DHT22;23057;48.554;14.454;2022-07-19T13:46:33;30.40;99.90
41939;DHT22;23057;48.554;14.454;2022-07-19T13:49:04;30.60;99.90
41939;DHT22;23057;48.554;14.454;2022-07-19T13:51:36;30.60;99.90
41939;DHT22;23057;48.554;14.454;2022-07-19T13:54:08;30.80;99.90
41939;DHT22;23057;48.554;14.454;2022-07-19T13:56:40;30.80;99.90
41939;DHT22;23057;48.554;14.454;2022-07-19T13:59:11;31.00;99.90
41939;DHT22;23057;48.554;14.454;2022-07-19T14:01:42;31.00;99.90
41939;DHT22;23057;48.554;14.454;2022-07-19T14:04:13;30.90;99.90
41939;DHT22;23057;48.554;14.454;2022-07-19T14:06:44;31.00;99.90
41939;DHT22;23057;48.554;14.454;2022-07-19T14:09:14;30.80;99.90
41939;DHT22;23057;48.554;14.454;2022-07-19T14:11:45;30.50;99.90
41939;DHT22;23057;48.554;14.454;2022-07-19T14:14:17;30.60;99.90
41939;DHT22;23057;48.554;14.454;2022-07-19T14:16:48;30.60;99.90
41939;DHT22;23057;48.554;14.454;2022-07-19T14:19:19;30.80;99.90
41939;DHT22;23057;48.554;14.454;2022-07-19T14:21:49;30.90;99.90
41939;DHT22;23057;48.554;14.454;2022-07-19T14:24:20;30.80;99.90
41939;DHT22;23057;48.554;14.454;2022-07-19T14:26:51;30.40;99.90
41939;DHT22;23057;48.554;14.454;2022-07-19T14:29:22;30.20;99.90
41939;DHT22;23057;48.554;14.454;2022-07-19T14:31:53;30.40;99.90
41939;DHT22;23057;48.554;14.454;2022-07-19T14:34:25;30.50;99.90
41939;DHT22;23057;48.554;14.454;2022-07-19T14:36:56;30.70;99.90
41939;DHT22;23057;48.554;14.454;2022-07-19T14:39:26;30.80;99.90
41939;DHT22;23057;48.554;14.454;2022-07-19T14:41:58;30.70;99.90
41939;DHT22;23057;48.554;14.454;2022-07-19T14:44:31;30.70;99.90
41939;DHT22;23057;48.554;14.454;2022-07-19T14:47:03;30.70;99.90
41939;DHT22;23057;48.554;14.454;2022-07-19T14:49:34;30.70;99.90
41939;DHT22;23057;48.554;14.454;2022-07-19T14:52:05;30.60;99.90
41939;DHT22;23057;48.554;14.454;2022-07-19T14:54:36;30.10;99.90
41939;DHT22;23057;48.554;14.454;2022-07-19T14:57:07;29.70;99.90
41939;DHT22;23057;48.554;14.454;2022-07-19T14:59:38;29.50;99.90
41939;DHT22;23057;48.554;14.454;2022-07-19T15:02:09;29.30;99.90
41939;DHT22;23057;48.554;14.454;2022-07-19T15:04:40;29.60;99.90
41939;DHT22;23057;48.554;14.454;2022-07-19T15:07:11;29.60;99.90
41939;DHT22;23057;48.554;14.454;2022-07-19T15:09:43;29.60;99.90
41939;DHT22;23057;48.554;14.454;2022-07-19T15:12:14;29.70;99.90
41939;DHT22;23057;48.554;14.454;2022-07-19T15:14:45;29.90;99.90
41939;DHT22;23057;48.554;14.454;2022-07-19T15:17:16;30.00;99.90
41939;DHT22;23057;48.554;14.454;2022-07-19T15:19:47;30.10;99.90
41939;DHT22;23057;48.554;14.454;2022-07-19T15:22:18;30.00;99.90
41939;DHT22;23057;48.554;14.454;2022-07-19T15:24:50;29.60;99.90
41939;DHT22;23057;48.554;14.454;2022-07-19T15:27:20;29.00;99.90
41939;DHT22;23057;48.554;14.454;2022-07-19T15:29:51;29.20;99.90
41939;DHT22;23057;48.554;14.454;2022-07-19T15:32:22;29.40;99.90
41939;DHT22;23057;48.554;14.454;2022-07-19T15:34:53;29.60;99.90
41939;DHT22;23057;48.554;14.454;2022-07-19T15:37:24;29.70;99.90
41939;DHT22;23057;48.554;14.454;2022-07-19T15:39:55;29.80;99.90
41939;DHT22;23057;48.554;14.454;2022-07-19T15:42:25;30.00;99.90
41939;DHT22;23057;48.554;14.454;2022-07-19T15:44:56;29.70;99.90
41939;DHT22;23057;48.554;14.454;2022-07-19T15:47:27;29.70;99.90
41939;DHT22;23057;48.554;14.454;2022-07-19T15:49:58;29.70;99.90
41939;DHT22;23057;48.554;14.454;2022-07-19T15:52:29;29.70;99.90
41939;DHT22;23057;48.554;14.454;2022-07-19T15:54:59;29.50;99.90
41939;DHT22;23057;48.554;14.454;2022-07-19T15:57:30;29.20;99.90
41939;DHT22;23057;48.554;14.454;2022-07-19T16:00:02;29.30;99.90
41939;DHT22;23057;48.554;14.454;2022-07-19T16:02:37;29.30;99.90
41939;DHT22;23057;48.554;14.454;2022-07-19T16:05:09;29.20;99.90
41939;DHT22;23057;48.554;14.454;2022-07-19T16:07:41;29.20;99.90
41939;DHT22;23057;48.554;14.454;2022-07-19T16:10:12;29.40;99.90